sensor_id;sensor_type;location;lat;lon;timestamp;P1;durP1;ratioP1;P2;durP2;ratioP2
69714;SDS011;56981;53.532;49.398;2022-10-17T00:00:21;4.93;;;3.65;;
69714;SDS011;56981;53.532;49.398;2022-10-17T00:02:55;3.85;;;3.15;;
69714;SDS011;56981;53.532;49.398;2022-10-17T00:05:27;5.38;;;3.58;;
69714;SDS011;56981;53.532;49.398;2022-10-17T00:08:01;5.78;;;3.58;;
69714;SDS011;56981;53.532;49.398;2022-10-17T00:10:33;5.50;;;3.47;;
69714;SDS011;56981;53.532;49.398;2022-10-17T00:13:05;5.07;;;3.25;;
69714;SDS011;56981;53.532;49.398;2022-10-17T00:15:37;10.75;;;3.75;;
69714;SDS011;56981;53.532;49.398;2022-10-17T00:18:08;5.38;;;3.15;;
69714;SDS011;56981;53.532;49.398;2022-10-17T00:20:40;5.57;;;3.05;;
69714;SDS011;56981;53.532;49.398;2022-10-17T00:23:12;6.22;;;3.75;;
69714;SDS011;56981;53.532;49.398;2022-10-17T00:25:43;7.95;;;3.40;;
69714;SDS011;56981;53.532;49.398;2022-10-17T00:28:15;7.13;;;3.08;;
69714;SDS011;56981;53.532;49.398;2022-10-17T00:30:53;4.97;;;3.33;;
69714;SDS011;56981;53.532;49.398;2022-10-17T00:33:26;6.03;;;3.30;;
69714;SDS011;56981;53.532;49.398;2022-10-17T00:36:02;4.18;;;3.45;;
69714;SDS011;56981;53.532;49.398;2022-10-17T00:38:35;6.43;;;3.53;;
69714;SDS011;56981;53.532;49.398;2022-10-17T00:41:07;9.73;;;3.47;;
69714;SDS011;56981;53.532;49.398;2022-10-17T00:46:37;8.75;;;3.40;;
69714;SDS011;56981;53.532;49.398;2022-10-17T00:49:10;5.53;;;3.42;;
69714;SDS011;56981;53.532;49.398;2022-10-17T00:51:44;10.25;;;3.92;;
69714;SDS011;56981;53.532;49.398;2022-10-17T00:54:20;5.57;;;3.60;;
69714;SDS011;56981;53.532;49.398;2022-10-17T00:56:54;7.50;;;3.83;;
69714;SDS011;56981;53.532;49.398;2022-10-17T00:59:26;8.35;;;3.80;;
69714;SDS011;56981;53.532;49.398;2022-10-17T01:01:59;5.72;;;4.38;;
69714;SDS011;56981;53.532;49.398;2022-10-17T01:04:39;8.57;;;5.50;;
69714;SDS011;56981;53.532;49.398;2022-10-17T01:07:13;6.30;;;4.65;;
69714;SDS011;56981;53.532;49.398;2022-10-17T01:09:44;6.55;;;4.28;;
69714;SDS011;56981;53.532;49.398;2022-10-17T01:23:25;5.95;;;3.95;;
69714;SDS011;56981;53.532;49.398;2022-10-17T01:26:18;5.95;;;3.80;;
69714;SDS011;56981;53.532;49.398;2022-10-17T01:32:11;7.80;;;3.88;;
69714;SDS011;56981;53.532;49.398;2022-10-17T01:34:47;5.05;;;3.47;;
69714;SDS011;56981;53.532;49.398;2022-10-17T01:37:30;5.82;;;3.75;;
69714;SDS011;56981;53.532;49.398;2022-10-17T01:40:10;5.75;;;3.78;;
69714;SDS011;56981;53.532;49.398;2022-10-17T01:43:01;5.40;;;3.83;;
69714;SDS011;56981;53.532;49.398;2022-10-17T01:46:01;8.63;;;4.45;;
69714;SDS011;56981;53.532;49.398;2022-10-17T01:48:53;9.57;;;3.78;;
69714;SDS011;56981;53.532;49.398;2022-10-17T01:51:29;26.02;;;5.57;;
69714;SDS011;56981;53.532;49.398;2022-10-17T01:54:52;7.25;;;4.00;;
69714;SDS011;56981;53.532;49.398;2022-10-17T01:57:25;10.40;;;4.85;;
69714;SDS011;56981;53.532;49.398;2022-10-17T02:00:17;14.23;;;5.20;;
69714;SDS011;56981;53.532;49.398;2022-10-17T02:02:54;8.05;;;3.90;;
69714;SDS011;56981;53.532;49.398;2022-10-17T02:05:32;13.25;;;4.22;;
69714;SDS011;56981;53.532;49.398;2022-10-17T02:08:07;8.07;;;3.72;;
69714;SDS011;56981;53.532;49.398;2022-10-17T02:10:46;10.02;;;4.43;;
69714;SDS011;56981;53.532;49.398;2022-10-17T02:24:34;11.95;;;4.47;;
69714;SDS011;56981;53.532;49.398;2022-10-17T02:27:28;11.77;;;5.68;;
69714;SDS011;56981;53.532;49.398;2022-10-17T02:30:13;11.07;;;4.47;;
69714;SDS011;56981;53.532;49.398;2022-10-17T02:33:05;11.63;;;4.30;;
69714;SDS011;56981;53.532;49.398;2022-10-17T02:35:47;13.50;;;5.22;;
69714;SDS011;56981;53.532;49.398;2022-10-17T02:38:23;8.02;;;4.90;;
69714;SDS011;56981;53.532;49.398;2022-10-17T02:40:56;8.85;;;4.68;;
69714;SDS011;56981;53.532;49.398;2022-10-17T02:43:28;8.32;;;4.82;;
69714;SDS011;56981;53.532;49.398;2022-10-17T02:46:00;9.98;;;4.63;;
69714;SDS011;56981;53.532;49.398;2022-10-17T02:48:40;10.25;;;5.10;;
69714;SDS011;56981;53.532;49.398;2022-10-17T02:51:23;11.55;;;4.78;;
69714;SDS011;56981;53.532;49.398;2022-10-17T02:54:18;12.98;;;4.95;;
69714;SDS011;56981;53.532;49.398;2022-10-17T02:56:54;14.10;;;4.63;;
69714;SDS011;56981;53.532;49.398;2022-10-17T02:59:30;11.13;;;5.45;;
69714;SDS011;56981;53.532;49.398;2022-10-17T03:02:05;11.32;;;4.53;;
69714;SDS011;56981;53.532;49.398;2022-10-17T03:04:36;11.90;;;4.32;;
69714;SDS011;56981;53.532;49.398;2022-10-17T03:07:08;10.73;;;4.65;;
69714;SDS011;56981;53.532;49.398;2022-10-17T03:09:39;12.85;;;4.68;;
69714;SDS011;56981;53.532;49.398;2022-10-17T03:12:10;10.68;;;5.03;;
69714;SDS011;56981;53.532;49.398;2022-10-17T03:14:42;14.25;;;4.57;;
69714;SDS011;56981;53.532;49.398;2022-10-17T03:17:13;19.58;;;5.13;;
69714;SDS011;56981;53.532;49.398;2022-10-17T03:19:44;14.07;;;4.95;;
69714;SDS011;56981;53.532;49.398;2022-10-17T03:22:15;13.95;;;4.97;;
69714;SDS011;56981;53.532;49.398;2022-10-17T03:24:47;16.05;;;7.28;;
69714;SDS011;56981;53.532;49.398;2022-10-17T03:27:18;13.55;;;5.38;;
69714;SDS011;56981;53.532;49.398;2022-10-17T03:29:49;15.60;;;4.93;;
69714;SDS011;56981;53.532;49.398;2022-10-17T03:32:21;13.95;;;5.32;;
69714;SDS011;56981;53.532;49.398;2022-10-17T03:34:52;17.70;;;5.18;;
69714;SDS011;56981;53.532;49.398;2022-10-17T03:37:23;12.10;;;5.53;;
69714;SDS011;56981;53.532;49.398;2022-10-17T03:39:55;11.63;;;5.25;;
69714;SDS011;56981;53.532;49.398;2022-10-17T03:42:26;11.55;;;5.63;;
69714;SDS011;56981;53.532;49.398;2022-10-17T03:44:57;11.40;;;4.70;;
69714;SDS011;56981;53.532;49.398;2022-10-17T03:47:29;6.30;;;4.35;;
69714;SDS011;56981;53.532;49.398;2022-10-17T03:50:00;8.25;;;4.65;;
69714;SDS011;56981;53.532;49.398;2022-10-17T03:52:31;12.27;;;5.47;;
69714;SDS011;56981;53.532;49.398;2022-10-17T03:55:03;7.85;;;4.45;;
69714;SDS011;56981;53.532;49.398;2022-10-17T03:57:34;9.73;;;4.40;;
69714;SDS011;56981;53.532;49.398;2022-10-17T04:00:06;11.48;;;4.85;;
69714;SDS011;56981;53.532;49.398;2022-10-17T04:02:38;9.10;;;3.88;;
69714;SDS011;56981;53.532;49.398;2022-10-17T04:05:10;12.82;;;4.57;;
69714;SDS011;56981;53.532;49.398;2022-10-17T04:07:41;10.98;;;4.90;;
69714;SDS011;56981;53.532;49.398;2022-10-17T04:10:12;10.73;;;5.18;;
69714;SDS011;56981;53.532;49.398;2022-10-17T04:12:44;11.68;;;5.00;;
69714;SDS011;56981;53.532;49.398;2022-10-17T04:15:15;10.25;;;4.50;;
69714;SDS011;56981;53.532;49.398;2022-10-17T04:17:46;7.57;;;4.60;;
69714;SDS011;56981;53.532;49.398;2022-10-17T04:20:17;9.10;;;4.20;;
69714;SDS011;56981;53.532;49.398;2022-10-17T04:22:49;11.10;;;4.55;;
69714;SDS011;56981;53.532;49.398;2022-10-17T04:25:20;9.68;;;5.53;;
69714;SDS011;56981;53.532;49.398;2022-10-17T04:27:51;8.18;;;4.00;;
69714;SDS011;56981;53.532;49.398;2022-10-17T04:30:22;9.77;;;4.35;;
69714;SDS011;56981;53.532;49.398;2022-10-17T04:32:54;10.13;;;4.28;;
69714;SDS011;56981;53.532;49.398;2022-10-17T04:35:25;4.95;;;3.55;;
69714;SDS011;56981;53.532;49.398;2022-10-17T04:37:56;7.75;;;3.97;;
69714;SDS011;56981;53.532;49.398;2022-10-17T04:40:28;9.95;;;4.00;;
69714;SDS011;56981;53.532;49.398;2022-10-17T04:42:59;5.60;;;3.67;;
69714;SDS011;56981;53.532;49.398;2022-10-17T04:45:31;6.45;;;3.30;;
69714;SDS011;56981;53.532;49.398;2022-10-17T04:48:02;9.73;;;3.60;;
69714;SDS011;56981;53.532;49.398;2022-10-17T04:50:34;8.35;;;3.65;;
69714;SDS011;56981;53.532;49.398;2022-10-17T04:53:05;3.70;;;3.40;;
69714;SDS011;56981;53.532;49.398;2022-10-17T04:55:37;3.75;;;3.40;;
69714;SDS011;56981;53.532;49.398;2022-10-17T04:58:09;6.47;;;3.13;;
69714;SDS011;56981;53.532;49.398;2022-10-17T05:00:40;4.72;;;3.28;;
69714;SDS011;56981;53.532;49.398;2022-10-17T05:03:15;6.10;;;3.58;;
69714;SDS011;56981;53.532;49.398;2022-10-17T05:05:47;4.47;;;2.97;;
69714;SDS011;56981;53.532;49.398;2022-10-17T05:08:18;3.78;;;2.97;;
69714;SDS011;56981;53.532;49.398;2022-10-17T05:10:50;3.83;;;3.03;;
69714;SDS011;56981;53.532;49.398;2022-10-17T05:13:21;3.60;;;3.28;;
69714;SDS011;56981;53.532;49.398;2022-10-17T05:15:53;4.68;;;2.97;;
69714;SDS011;56981;53.532;49.398;2022-10-17T05:18:29;3.85;;;3.00;;
69714;SDS011;56981;53.532;49.398;2022-10-17T05:21:02;3.92;;;3.05;;
69714;SDS011;56981;53.532;49.398;2022-10-17T05:23:33;4.07;;;3.05;;
69714;SDS011;56981;53.532;49.398;2022-10-17T05:26:05;4.85;;;3.00;;
69714;SDS011;56981;53.532;49.398;2022-10-17T05:28:37;5.32;;;2.55;;
69714;SDS011;56981;53.532;49.398;2022-10-17T05:31:09;5.28;;;3.03;;
69714;SDS011;56981;53.532;49.398;2022-10-17T05:33:42;4.05;;;3.08;;
69714;SDS011;56981;53.532;49.398;2022-10-17T05:36:14;7.28;;;2.92;;
69714;SDS011;56981;53.532;49.398;2022-10-17T05:38:52;3.83;;;2.80;;
69714;SDS011;56981;53.532;49.398;2022-10-17T05:41:23;8.05;;;4.03;;
69714;SDS011;56981;53.532;49.398;2022-10-17T05:43:54;4.82;;;3.00;;
69714;SDS011;56981;53.532;49.398;2022-10-17T05:46:26;21.40;;;3.78;;
69714;SDS011;56981;53.532;49.398;2022-10-17T05:49:00;4.13;;;2.95;;
69714;SDS011;56981;53.532;49.398;2022-10-17T05:51:32;5.13;;;3.00;;
69714;SDS011;56981;53.532;49.398;2022-10-17T05:54:05;4.95;;;3.00;;
69714;SDS011;56981;53.532;49.398;2022-10-17T05:56:38;6.15;;;2.80;;
69714;SDS011;56981;53.532;49.398;2022-10-17T05:59:09;3.42;;;3.05;;
69714;SDS011;56981;53.532;49.398;2022-10-17T06:01:41;2.75;;;2.50;;
69714;SDS011;56981;53.532;49.398;2022-10-17T06:04:13;3.85;;;2.72;;
69714;SDS011;56981;53.532;49.398;2022-10-17T06:06:44;3.75;;;3.08;;
69714;SDS011;56981;53.532;49.398;2022-10-17T06:09:16;5.10;;;3.05;;
69714;SDS011;56981;53.532;49.398;2022-10-17T06:11:49;5.55;;;2.97;;
69714;SDS011;56981;53.532;49.398;2022-10-17T06:14:21;5.82;;;2.75;;
69714;SDS011;56981;53.532;49.398;2022-10-17T06:16:53;7.03;;;2.78;;
69714;SDS011;56981;53.532;49.398;2022-10-17T06:19:25;3.72;;;2.90;;
69714;SDS011;56981;53.532;49.398;2022-10-17T06:21:57;12.02;;;3.13;;
69714;SDS011;56981;53.532;49.398;2022-10-17T06:24:28;3.20;;;2.90;;
69714;SDS011;56981;53.532;49.398;2022-10-17T06:27:00;5.60;;;3.05;;
69714;SDS011;56981;53.532;49.398;2022-10-17T06:29:32;5.68;;;3.20;;
69714;SDS011;56981;53.532;49.398;2022-10-17T06:32:05;4.05;;;3.30;;
69714;SDS011;56981;53.532;49.398;2022-10-17T06:34:40;5.15;;;3.22;;
69714;SDS011;56981;53.532;49.398;2022-10-17T06:37:12;5.10;;;3.40;;
69714;SDS011;56981;53.532;49.398;2022-10-17T06:39:45;5.30;;;2.90;;
69714;SDS011;56981;53.532;49.398;2022-10-17T06:42:17;4.60;;;3.28;;
69714;SDS011;56981;53.532;49.398;2022-10-17T06:44:49;4.22;;;3.30;;
69714;SDS011;56981;53.532;49.398;2022-10-17T06:47:20;4.45;;;3.35;;
69714;SDS011;56981;53.532;49.398;2022-10-17T06:49:52;3.70;;;3.00;;
69714;SDS011;56981;53.532;49.398;2022-10-17T06:52:23;6.22;;;3.00;;
69714;SDS011;56981;53.532;49.398;2022-10-17T06:54:55;5.25;;;3.22;;
69714;SDS011;56981;53.532;49.398;2022-10-17T06:57:26;6.15;;;3.25;;
69714;SDS011;56981;53.532;49.398;2022-10-17T06:59:58;11.48;;;3.38;;
69714;SDS011;56981;53.532;49.398;2022-10-17T07:02:29;5.13;;;3.22;;
69714;SDS011;56981;53.532;49.398;2022-10-17T07:05:01;3.17;;;2.88;;
69714;SDS011;56981;53.532;49.398;2022-10-17T07:07:33;4.15;;;2.95;;
69714;SDS011;56981;53.532;49.398;2022-10-17T07:10:04;3.83;;;2.75;;
69714;SDS011;56981;53.532;49.398;2022-10-17T07:12:38;4.10;;;2.92;;
69714;SDS011;56981;53.532;49.398;2022-10-17T07:15:09;4.43;;;3.40;;
69714;SDS011;56981;53.532;49.398;2022-10-17T07:17:41;8.60;;;4.22;;
69714;SDS011;56981;53.532;49.398;2022-10-17T07:20:13;5.25;;;3.40;;
69714;SDS011;56981;53.532;49.398;2022-10-17T07:22:44;4.32;;;2.90;;
69714;SDS011;56981;53.532;49.398;2022-10-17T07:25:16;5.10;;;2.90;;
69714;SDS011;56981;53.532;49.398;2022-10-17T07:27:51;6.38;;;3.72;;
69714;SDS011;56981;53.532;49.398;2022-10-17T07:30:23;5.93;;;3.33;;
69714;SDS011;56981;53.532;49.398;2022-10-17T07:32:55;7.28;;;3.22;;
69714;SDS011;56981;53.532;49.398;2022-10-17T07:35:26;4.07;;;2.80;;
69714;SDS011;56981;53.532;49.398;2022-10-17T07:37:58;5.18;;;3.20;;
69714;SDS011;56981;53.532;49.398;2022-10-17T07:40:29;3.53;;;2.72;;
69714;SDS011;56981;53.532;49.398;2022-10-17T07:43:01;6.50;;;3.28;;
69714;SDS011;56981;53.532;49.398;2022-10-17T07:45:33;5.68;;;2.92;;
69714;SDS011;56981;53.532;49.398;2022-10-17T07:48:04;12.32;;;3.47;;
69714;SDS011;56981;53.532;49.398;2022-10-17T07:50:35;6.43;;;3.45;;
69714;SDS011;56981;53.532;49.398;2022-10-17T07:53:07;7.68;;;3.88;;
69714;SDS011;56981;53.532;49.398;2022-10-17T07:55:39;8.02;;;3.60;;
69714;SDS011;56981;53.532;49.398;2022-10-17T07:58:11;11.10;;;3.45;;
69714;SDS011;56981;53.532;49.398;2022-10-17T08:00:43;8.15;;;3.85;;
69714;SDS011;56981;53.532;49.398;2022-10-17T08:03:17;5.45;;;3.60;;
69714;SDS011;56981;53.532;49.398;2022-10-17T08:05:49;5.57;;;3.50;;
69714;SDS011;56981;53.532;49.398;2022-10-17T08:08:20;5.10;;;3.50;;
69714;SDS011;56981;53.532;49.398;2022-10-17T08:10:52;12.98;;;4.05;;
69714;SDS011;56981;53.532;49.398;2022-10-17T08:13:25;5.93;;;4.05;;
69714;SDS011;56981;53.532;49.398;2022-10-17T08:16:03;6.78;;;4.45;;
69714;SDS011;56981;53.532;49.398;2022-10-17T08:18:37;4.25;;;3.42;;
69714;SDS011;56981;53.532;49.398;2022-10-17T08:21:10;6.22;;;3.80;;
69714;SDS011;56981;53.532;49.398;2022-10-17T08:23:43;8.70;;;3.72;;
69714;SDS011;56981;53.532;49.398;2022-10-17T08:26:15;7.55;;;3.40;;
69714;SDS011;56981;53.532;49.398;2022-10-17T08:28:49;6.90;;;3.88;;
69714;SDS011;56981;53.532;49.398;2022-10-17T08:31:21;6.45;;;3.83;;
69714;SDS011;56981;53.532;49.398;2022-10-17T08:33:52;6.95;;;4.15;;
69714;SDS011;56981;53.532;49.398;2022-10-17T08:36:24;6.65;;;3.90;;
69714;SDS011;56981;53.532;49.398;2022-10-17T08:38:56;6.28;;;3.85;;
69714;SDS011;56981;53.532;49.398;2022-10-17T08:41:41;5.47;;;3.53;;
69714;SDS011;56981;53.532;49.398;2022-10-17T08:46:51;6.72;;;3.50;;
69714;SDS011;56981;53.532;49.398;2022-10-17T08:55:13;5.93;;;3.85;;
69714;SDS011;56981;53.532;49.398;2022-10-17T08:57:47;8.13;;;3.70;;
69714;SDS011;56981;53.532;49.398;2022-10-17T09:00:19;5.65;;;3.30;;
69714;SDS011;56981;53.532;49.398;2022-10-17T09:08:39;4.28;;;3.30;;
69714;SDS011;56981;53.532;49.398;2022-10-17T09:20:14;4.32;;;3.00;;
69714;SDS011;56981;53.532;49.398;2022-10-17T09:22:57;6.68;;;3.28;;
69714;SDS011;56981;53.532;49.398;2022-10-17T09:25:37;7.85;;;4.07;;
69714;SDS011;56981;53.532;49.398;2022-10-17T09:31:08;6.38;;;2.92;;
69714;SDS011;56981;53.532;49.398;2022-10-17T09:33:49;4.68;;;2.88;;
69714;SDS011;56981;53.532;49.398;2022-10-17T09:36:28;7.03;;;3.30;;
69714;SDS011;56981;53.532;49.398;2022-10-17T09:39:12;8.38;;;3.40;;
69714;SDS011;56981;53.532;49.398;2022-10-17T09:41:54;5.55;;;3.17;;
69714;SDS011;56981;53.532;49.398;2022-10-17T09:44:32;5.82;;;2.55;;
69714;SDS011;56981;53.532;49.398;2022-10-17T09:47:37;3.03;;;2.40;;
69714;SDS011;56981;53.532;49.398;2022-10-17T09:50:33;8.38;;;3.20;;
69714;SDS011;56981;53.532;49.398;2022-10-17T09:53:14;5.13;;;2.95;;
69714;SDS011;56981;53.532;49.398;2022-10-17T09:55:59;6.32;;;2.53;;
69714;SDS011;56981;53.532;49.398;2022-10-17T09:59:07;3.10;;;2.22;;
69714;SDS011;56981;53.532;49.398;2022-10-17T10:01:30;6.72;;;3.22;;
69714;SDS011;56981;53.532;49.398;2022-10-17T10:04:09;5.43;;;2.97;;
69714;SDS011;56981;53.532;49.398;2022-10-17T10:09:33;3.55;;;2.90;;
69714;SDS011;56981;53.532;49.398;2022-10-17T10:12:14;3.08;;;2.55;;
69714;SDS011;56981;53.532;49.398;2022-10-17T10:14:52;3.47;;;2.05;;
69714;SDS011;56981;53.532;49.398;2022-10-17T10:17:28;2.70;;;1.85;;
69714;SDS011;56981;53.532;49.398;2022-10-17T10:23:17;1.90;;;1.80;;
69714;SDS011;56981;53.532;49.398;2022-10-17T10:25:52;3.30;;;2.22;;
69714;SDS011;56981;53.532;49.398;2022-10-17T10:28:27;2.25;;;2.05;;
69714;SDS011;56981;53.532;49.398;2022-10-17T10:31:03;1.80;;;1.60;;
69714;SDS011;56981;53.532;49.398;2022-10-17T10:33:40;3.60;;;2.10;;
69714;SDS011;56981;53.532;49.398;2022-10-17T10:36:17;3.97;;;2.00;;
69714;SDS011;56981;53.532;49.398;2022-10-17T10:38:53;2.60;;;1.90;;
69714;SDS011;56981;53.532;49.398;2022-10-17T10:41:26;1.60;;;1.35;;
69714;SDS011;56981;53.532;49.398;2022-10-17T10:43:58;3.08;;;2.17;;
69714;SDS011;56981;53.532;49.398;2022-10-17T10:46:30;2.33;;;1.73;;
69714;SDS011;56981;53.532;49.398;2022-10-17T10:49:02;8.50;;;2.40;;
69714;SDS011;56981;53.532;49.398;2022-10-17T10:54:12;5.78;;;2.42;;
69714;SDS011;56981;53.532;49.398;2022-10-17T10:56:50;2.17;;;1.95;;
69714;SDS011;56981;53.532;49.398;2022-10-17T10:59:38;2.22;;;2.03;;
69714;SDS011;56981;53.532;49.398;2022-10-17T11:02:34;2.58;;;2.17;;
69714;SDS011;56981;53.532;49.398;2022-10-17T11:08:15;4.03;;;2.28;;
69714;SDS011;56981;53.532;49.398;2022-10-17T11:11:02;3.35;;;1.83;;
69714;SDS011;56981;53.532;49.398;2022-10-17T11:13:37;3.65;;;1.83;;
69714;SDS011;56981;53.532;49.398;2022-10-17T11:17:16;4.72;;;1.98;;
69714;SDS011;56981;53.532;49.398;2022-10-17T11:19:28;11.70;;;3.17;;
69714;SDS011;56981;53.532;49.398;2022-10-17T11:22:25;2.35;;;1.90;;
69714;SDS011;56981;53.532;49.398;2022-10-17T11:27:56;4.93;;;2.67;;
69714;SDS011;56981;53.532;49.398;2022-10-17T11:30:29;4.68;;;2.40;;
69714;SDS011;56981;53.532;49.398;2022-10-17T11:33:09;3.88;;;2.20;;
69714;SDS011;56981;53.532;49.398;2022-10-17T11:35:48;3.30;;;2.58;;
69714;SDS011;56981;53.532;49.398;2022-10-17T11:41:06;3.97;;;2.50;;
69714;SDS011;56981;53.532;49.398;2022-10-17T11:43:49;4.47;;;2.47;;
69714;SDS011;56981;53.532;49.398;2022-10-17T11:46:49;2.65;;;2.45;;
69714;SDS011;56981;53.532;49.398;2022-10-17T11:49:37;3.92;;;2.10;;
69714;SDS011;56981;53.532;49.398;2022-10-17T11:54:57;7.28;;;2.97;;
69714;SDS011;56981;53.532;49.398;2022-10-17T12:00:24;4.85;;;2.10;;
69714;SDS011;56981;53.532;49.398;2022-10-17T12:09:45;3.45;;;2.35;;
69714;SDS011;56981;53.532;49.398;2022-10-17T12:12:04;3.85;;;2.10;;
69714;SDS011;56981;53.532;49.398;2022-10-17T12:14:43;4.95;;;2.67;;
69714;SDS011;56981;53.532;49.398;2022-10-17T12:17:22;3.60;;;2.65;;
69714;SDS011;56981;53.532;49.398;2022-10-17T12:22:46;2.22;;;2.03;;
69714;SDS011;56981;53.532;49.398;2022-10-17T12:25:22;4.13;;;2.38;;
69714;SDS011;56981;53.532;49.398;2022-10-17T12:28:02;3.13;;;2.30;;
69714;SDS011;56981;53.532;49.398;2022-10-17T12:30:36;4.47;;;2.40;;
69714;SDS011;56981;53.532;49.398;2022-10-17T12:33:29;4.20;;;2.40;;
69714;SDS011;56981;53.532;49.398;2022-10-17T12:46:56;3.65;;;2.60;;
69714;SDS011;56981;53.532;49.398;2022-10-17T12:49:44;4.53;;;2.20;;
69714;SDS011;56981;53.532;49.398;2022-10-17T12:55:06;2.95;;;2.25;;
69714;SDS011;56981;53.532;49.398;2022-10-17T13:03:13;2.85;;;2.20;;
69714;SDS011;56981;53.532;49.398;2022-10-17T13:05:51;5.13;;;3.85;;
69714;SDS011;56981;53.532;49.398;2022-10-17T13:08:29;5.30;;;2.83;;
69714;SDS011;56981;53.532;49.398;2022-10-17T13:11:03;3.53;;;2.40;;
69714;SDS011;56981;53.532;49.398;2022-10-17T13:13:41;2.92;;;2.40;;
69714;SDS011;56981;53.532;49.398;2022-10-17T13:16:27;3.58;;;2.45;;
69714;SDS011;56981;53.532;49.398;2022-10-17T13:19:23;3.78;;;2.58;;
69714;SDS011;56981;53.532;49.398;2022-10-17T13:22:00;6.60;;;3.15;;
69714;SDS011;56981;53.532;49.398;2022-10-17T13:24:34;6.40;;;2.65;;
69714;SDS011;56981;53.532;49.398;2022-10-17T13:29:57;2.97;;;2.60;;
69714;SDS011;56981;53.532;49.398;2022-10-17T13:32:36;7.20;;;3.05;;
69714;SDS011;56981;53.532;49.398;2022-10-17T13:35:10;5.13;;;3.00;;
69714;SDS011;56981;53.532;49.398;2022-10-17T13:37:44;4.47;;;2.60;;
69714;SDS011;56981;53.532;49.398;2022-10-17T13:40:17;4.20;;;2.95;;
69714;SDS011;56981;53.532;49.398;2022-10-17T13:42:51;5.53;;;2.80;;
69714;SDS011;56981;53.532;49.398;2022-10-17T13:48:02;3.97;;;2.88;;
69714;SDS011;56981;53.532;49.398;2022-10-17T13:50:36;5.72;;;4.32;;
69714;SDS011;56981;53.532;49.398;2022-10-17T13:53:18;8.18;;;3.00;;
69714;SDS011;56981;53.532;49.398;2022-10-17T13:55:52;4.93;;;2.67;;
69714;SDS011;56981;53.532;49.398;2022-10-17T13:58:38;5.85;;;2.70;;
69714;SDS011;56981;53.532;49.398;2022-10-17T14:01:12;10.77;;;2.80;;
69714;SDS011;56981;53.532;49.398;2022-10-17T14:03:45;4.82;;;3.17;;
69714;SDS011;56981;53.532;49.398;2022-10-17T14:06:24;4.65;;;2.80;;
69714;SDS011;56981;53.532;49.398;2022-10-17T14:08:58;6.50;;;2.90;;
69714;SDS011;56981;53.532;49.398;2022-10-17T14:11:36;11.25;;;3.67;;
69714;SDS011;56981;53.532;49.398;2022-10-17T14:14:21;8.52;;;5.47;;
69714;SDS011;56981;53.532;49.398;2022-10-17T14:16:55;7.07;;;3.08;;
69714;SDS011;56981;53.532;49.398;2022-10-17T14:19:30;12.15;;;3.95;;
69714;SDS011;56981;53.532;49.398;2022-10-17T14:22:14;5.68;;;3.38;;
69714;SDS011;56981;53.532;49.398;2022-10-17T14:24:53;10.00;;;3.33;;
69714;SDS011;56981;53.532;49.398;2022-10-17T14:27:26;6.47;;;2.67;;
69714;SDS011;56981;53.532;49.398;2022-10-17T14:29:58;6.22;;;3.47;;
69714;SDS011;56981;53.532;49.398;2022-10-17T14:32:49;9.63;;;3.63;;
69714;SDS011;56981;53.532;49.398;2022-10-17T14:35:22;5.93;;;3.53;;
69714;SDS011;56981;53.532;49.398;2022-10-17T14:37:57;6.68;;;4.18;;
69714;SDS011;56981;53.532;49.398;2022-10-17T14:40:31;15.70;;;6.68;;
69714;SDS011;56981;53.532;49.398;2022-10-17T14:43:04;10.27;;;4.32;;
69714;SDS011;56981;53.532;49.398;2022-10-17T14:45:37;9.35;;;4.15;;
69714;SDS011;56981;53.532;49.398;2022-10-17T14:48:13;6.90;;;3.92;;
69714;SDS011;56981;53.532;49.398;2022-10-17T14:53:38;8.10;;;3.63;;
69714;SDS011;56981;53.532;49.398;2022-10-17T14:56:21;7.32;;;4.15;;
69714;SDS011;56981;53.532;49.398;2022-10-17T14:58:54;5.40;;;3.80;;
69714;SDS011;56981;53.532;49.398;2022-10-17T15:01:39;6.65;;;3.80;;
69714;SDS011;56981;53.532;49.398;2022-10-17T15:04:17;13.98;;;5.32;;
69714;SDS011;56981;53.532;49.398;2022-10-17T15:06:53;12.75;;;7.43;;
69714;SDS011;56981;53.532;49.398;2022-10-17T15:09:25;5.40;;;3.47;;
69714;SDS011;56981;53.532;49.398;2022-10-17T15:11:59;5.25;;;3.20;;
69714;SDS011;56981;53.532;49.398;2022-10-17T15:14:32;6.22;;;3.13;;
69714;SDS011;56981;53.532;49.398;2022-10-17T15:17:08;7.40;;;3.45;;
69714;SDS011;56981;53.532;49.398;2022-10-17T15:19:45;4.72;;;3.15;;
69714;SDS011;56981;53.532;49.398;2022-10-17T15:22:17;3.53;;;2.83;;
69714;SDS011;56981;53.532;49.398;2022-10-17T15:24:49;6.85;;;3.08;;
69714;SDS011;56981;53.532;49.398;2022-10-17T15:27:21;4.13;;;3.13;;
69714;SDS011;56981;53.532;49.398;2022-10-17T15:29:54;5.57;;;2.83;;
69714;SDS011;56981;53.532;49.398;2022-10-17T15:36:32;4.75;;;2.70;;
69714;SDS011;56981;53.532;49.398;2022-10-17T15:39:06;5.55;;;2.75;;
69714;SDS011;56981;53.532;49.398;2022-10-17T15:41:39;5.78;;;3.05;;
69714;SDS011;56981;53.532;49.398;2022-10-17T15:44:11;4.40;;;3.00;;
69714;SDS011;56981;53.532;49.398;2022-10-17T15:46:43;5.53;;;2.83;;
69714;SDS011;56981;53.532;49.398;2022-10-17T15:49:17;4.72;;;2.75;;
69714;SDS011;56981;53.532;49.398;2022-10-17T15:51:49;5.72;;;2.83;;
69714;SDS011;56981;53.532;49.398;2022-10-17T15:54:23;3.50;;;2.67;;
69714;SDS011;56981;53.532;49.398;2022-10-17T15:56:54;5.85;;;3.05;;
69714;SDS011;56981;53.532;49.398;2022-10-17T15:59:28;5.20;;;3.03;;
69714;SDS011;56981;53.532;49.398;2022-10-17T16:02:03;3.30;;;2.70;;
69714;SDS011;56981;53.532;49.398;2022-10-17T16:04:34;4.50;;;3.17;;
69714;SDS011;56981;53.532;49.398;2022-10-17T16:07:06;4.97;;;2.72;;
69714;SDS011;56981;53.532;49.398;2022-10-17T16:09:37;5.10;;;3.42;;
69714;SDS011;56981;53.532;49.398;2022-10-17T16:12:10;10.23;;;4.82;;
69714;SDS011;56981;53.532;49.398;2022-10-17T16:14:45;5.63;;;3.33;;
69714;SDS011;56981;53.532;49.398;2022-10-17T16:17:16;4.65;;;3.08;;
69714;SDS011;56981;53.532;49.398;2022-10-17T16:19:48;4.53;;;3.35;;
69714;SDS011;56981;53.532;49.398;2022-10-17T16:22:21;4.15;;;2.50;;
69714;SDS011;56981;53.532;49.398;2022-10-17T16:24:59;6.53;;;3.08;;
69714;SDS011;56981;53.532;49.398;2022-10-17T16:27:40;6.57;;;2.85;;
69714;SDS011;56981;53.532;49.398;2022-10-17T16:30:15;4.28;;;2.67;;
69714;SDS011;56981;53.532;49.398;2022-10-17T16:32:52;4.40;;;2.72;;
69714;SDS011;56981;53.532;49.398;2022-10-17T16:35:26;6.53;;;2.70;;
69714;SDS011;56981;53.532;49.398;2022-10-17T16:37:59;6.88;;;2.97;;
69714;SDS011;56981;53.532;49.398;2022-10-17T16:40:31;7.57;;;2.90;;
69714;SDS011;56981;53.532;49.398;2022-10-17T16:43:02;11.75;;;3.15;;
69714;SDS011;56981;53.532;49.398;2022-10-17T16:45:34;7.25;;;3.10;;
69714;SDS011;56981;53.532;49.398;2022-10-17T16:48:07;6.15;;;3.08;;
69714;SDS011;56981;53.532;49.398;2022-10-17T16:50:39;7.10;;;3.03;;
69714;SDS011;56981;53.532;49.398;2022-10-17T16:53:10;8.68;;;3.90;;
69714;SDS011;56981;53.532;49.398;2022-10-17T16:55:42;5.13;;;3.30;;
69714;SDS011;56981;53.532;49.398;2022-10-17T16:58:13;6.97;;;4.40;;
69714;SDS011;56981;53.532;49.398;2022-10-17T17:00:44;7.03;;;3.03;;
69714;SDS011;56981;53.532;49.398;2022-10-17T17:03:16;9.40;;;3.50;;
69714;SDS011;56981;53.532;49.398;2022-10-17T17:05:50;5.53;;;3.40;;
69714;SDS011;56981;53.532;49.398;2022-10-17T17:08:22;7.00;;;3.20;;
69714;SDS011;56981;53.532;49.398;2022-10-17T17:10:53;6.50;;;3.63;;
69714;SDS011;56981;53.532;49.398;2022-10-17T17:13:26;6.53;;;3.38;;
69714;SDS011;56981;53.532;49.398;2022-10-17T17:16:02;5.57;;;3.72;;
69714;SDS011;56981;53.532;49.398;2022-10-17T17:18:34;6.43;;;3.10;;